sensor_id;sensor_type;location;lat;lon;timestamp;P1;durP1;ratioP1;P2;durP2;ratioP2
18720;SDS011;9489;50.948;3.114;2022-09-09T00:00:23;6.15;;;2.97;;
18720;SDS011;9489;50.948;3.114;2022-09-09T00:02:53;8.52;;;2.83;;
18720;SDS011;9489;50.948;3.114;2022-09-09T00:07:58;5.43;;;2.47;;
18720;SDS011;9489;50.948;3.114;2022-09-09T00:13:20;6.03;;;2.95;;
18720;SDS011;9489;50.948;3.114;2022-09-09T00:21:19;4.55;;;2.08;;
18720;SDS011;9489;50.948;3.114;2022-09-09T00:23:56;4.93;;;2.10;;
18720;SDS011;9489;50.948;3.114;2022-09-09T00:31:37;2.97;;;2.00;;
18720;SDS011;9489;50.948;3.114;2022-09-09T00:34:05;3.72;;;2.35;;
18720;SDS011;9489;50.948;3.114;2022-09-09T00:36:34;3.97;;;2.03;;
18720;SDS011;9489;50.948;3.114;2022-09-09T00:39:02;5.50;;;1.90;;
18720;SDS011;9489;50.948;3.114;2022-09-09T00:44:00;4.07;;;2.10;;
18720;SDS011;9489;50.948;3.114;2022-09-09T00:55:02;4.88;;;2.08;;
18720;SDS011;9489;50.948;3.114;2022-09-09T00:57:38;4.57;;;1.77;;
18720;SDS011;9489;50.948;3.114;2022-09-09T01:05:51;4.28;;;2.20;;
18720;SDS011;9489;50.948;3.114;2022-09-09T01:10:55;3.80;;;2.25;;
18720;SDS011;9489;50.948;3.114;2022-09-09T01:13:30;8.38;;;2.15;;
18720;SDS011;9489;50.948;3.114;2022-09-09T01:15:59;7.18;;;2.50;;
18720;SDS011;9489;50.948;3.114;2022-09-09T01:18:37;4.35;;;2.33;;
18720;SDS011;9489;50.948;3.114;2022-09-09T01:24:15;5.55;;;2.42;;
18720;SDS011;9489;50.948;3.114;2022-09-09T01:26:47;7.55;;;2.60;;
18720;SDS011;9489;50.948;3.114;2022-09-09T01:29:17;4.90;;;2.22;;
18720;SDS011;9489;50.948;3.114;2022-09-09T01:31:53;7.38;;;2.70;;
18720;SDS011;9489;50.948;3.114;2022-09-09T01:34:18;5.50;;;2.50;;
18720;SDS011;9489;50.948;3.114;2022-09-09T01:36:58;8.77;;;3.22;;
18720;SDS011;9489;50.948;3.114;2022-09-09T01:39:27;7.07;;;2.72;;
18720;SDS011;9489;50.948;3.114;2022-09-09T01:41:53;6.53;;;3.00;;
18720;SDS011;9489;50.948;3.114;2022-09-09T01:44:20;6.65;;;2.90;;
18720;SDS011;9489;50.948;3.114;2022-09-09T01:46:47;6.15;;;2.65;;
18720;SDS011;9489;50.948;3.114;2022-09-09T01:49:12;6.65;;;2.70;;
18720;SDS011;9489;50.948;3.114;2022-09-09T01:51:38;6.07;;;2.55;;
18720;SDS011;9489;50.948;3.114;2022-09-09T01:54:06;6.88;;;3.05;;
18720;SDS011;9489;50.948;3.114;2022-09-09T02:01:55;4.22;;;2.33;;
18720;SDS011;9489;50.948;3.114;2022-09-09T02:04:40;7.03;;;2.97;;
18720;SDS011;9489;50.948;3.114;2022-09-09T02:07:15;6.32;;;2.53;;
18720;SDS011;9489;50.948;3.114;2022-09-09T02:10:10;6.68;;;2.53;;
18720;SDS011;9489;50.948;3.114;2022-09-09T02:12:43;9.82;;;3.03;;
18720;SDS011;9489;50.948;3.114;2022-09-09T02:15:45;7.00;;;2.65;;
18720;SDS011;9489;50.948;3.114;2022-09-09T02:18:06;4.85;;;2.60;;
18720;SDS011;9489;50.948;3.114;2022-09-09T02:20:34;6.00;;;2.55;;
18720;SDS011;9489;50.948;3.114;2022-09-09T02:23:03;6.00;;;2.35;;
18720;SDS011;9489;50.948;3.114;2022-09-09T02:25:30;6.32;;;2.47;;
18720;SDS011;9489;50.948;3.114;2022-09-09T02:27:58;5.00;;;2.60;;
18720;SDS011;9489;50.948;3.114;2022-09-09T02:30:24;7.78;;;2.83;;
18720;SDS011;9489;50.948;3.114;2022-09-09T02:32:52;7.10;;;2.33;;
18720;SDS011;9489;50.948;3.114;2022-09-09T02:35:24;7.55;;;3.08;;
18720;SDS011;9489;50.948;3.114;2022-09-09T02:37:55;9.05;;;3.42;;
18720;SDS011;9489;50.948;3.114;2022-09-09T02:40:24;10.30;;;2.58;;
18720;SDS011;9489;50.948;3.114;2022-09-09T02:42:50;7.82;;;3.22;;
18720;SDS011;9489;50.948;3.114;2022-09-09T02:45:19;7.97;;;3.15;;
18720;SDS011;9489;50.948;3.114;2022-09-09T02:53:33;8.32;;;3.30;;
18720;SDS011;9489;50.948;3.114;2022-09-09T02:56:14;9.43;;;3.08;;
18720;SDS011;9489;50.948;3.114;2022-09-09T02:58:43;10.32;;;3.40;;
18720;SDS011;9489;50.948;3.114;2022-09-09T03:01:08;7.60;;;2.90;;
18720;SDS011;9489;50.948;3.114;2022-09-09T03:03:34;9.05;;;3.05;;
18720;SDS011;9489;50.948;3.114;2022-09-09T03:06:00;9.07;;;3.90;;
18720;SDS011;9489;50.948;3.114;2022-09-09T03:08:26;11.18;;;3.22;;
18720;SDS011;9489;50.948;3.114;2022-09-09T03:10:53;10.85;;;3.90;;
18720;SDS011;9489;50.948;3.114;2022-09-09T03:13:19;6.88;;;2.90;;
18720;SDS011;9489;50.948;3.114;2022-09-09T03:15:45;7.95;;;2.90;;
18720;SDS011;9489;50.948;3.114;2022-09-09T03:18:13;10.13;;;3.50;;
18720;SDS011;9489;50.948;3.114;2022-09-09T03:20:38;10.15;;;3.38;;
18720;SDS011;9489;50.948;3.114;2022-09-09T03:23:04;8.18;;;3.15;;
18720;SDS011;9489;50.948;3.114;2022-09-09T03:25:29;7.75;;;3.22;;
18720;SDS011;9489;50.948;3.114;2022-09-09T03:27:55;8.15;;;3.33;;
18720;SDS011;9489;50.948;3.114;2022-09-09T03:30:22;10.75;;;3.47;;
18720;SDS011;9489;50.948;3.114;2022-09-09T03:32:48;9.15;;;3.22;;
18720;SDS011;9489;50.948;3.114;2022-09-09T03:35:14;14.23;;;3.90;;
18720;SDS011;9489;50.948;3.114;2022-09-09T03:37:40;11.95;;;3.47;;
18720;SDS011;9489;50.948;3.114;2022-09-09T03:40:06;7.25;;;2.83;;
18720;SDS011;9489;50.948;3.114;2022-09-09T03:42:34;6.85;;;2.83;;
18720;SDS011;9489;50.948;3.114;2022-09-09T03:45:02;13.90;;;3.55;;
18720;SDS011;9489;50.948;3.114;2022-09-09T03:47:31;9.07;;;3.55;;
18720;SDS011;9489;50.948;3.114;2022-09-09T03:49:57;14.32;;;3.70;;
18720;SDS011;9489;50.948;3.114;2022-09-09T03:52:22;11.07;;;3.42;;
18720;SDS011;9489;50.948;3.114;2022-09-09T03:54:51;14.35;;;3.88;;
18720;SDS011;9489;50.948;3.114;2022-09-09T03:57:18;9.55;;;3.22;;
18720;SDS011;9489;50.948;3.114;2022-09-09T03:59:45;11.55;;;4.05;;
18720;SDS011;9489;50.948;3.114;2022-09-09T04:02:10;8.73;;;2.80;;
18720;SDS011;9489;50.948;3.114;2022-09-09T04:04:36;15.25;;;3.78;;
18720;SDS011;9489;50.948;3.114;2022-09-09T04:07:01;10.00;;;2.97;;
18720;SDS011;9489;50.948;3.114;2022-09-09T04:09:27;11.30;;;3.90;;
18720;SDS011;9489;50.948;3.114;2022-09-09T04:11:53;13.75;;;3.38;;
18720;SDS011;9489;50.948;3.114;2022-09-09T04:14:19;8.32;;;3.17;;
18720;SDS011;9489;50.948;3.114;2022-09-09T04:16:45;10.15;;;3.53;;
18720;SDS011;9489;50.948;3.114;2022-09-09T04:19:11;10.50;;;3.55;;
18720;SDS011;9489;50.948;3.114;2022-09-09T04:21:39;10.15;;;3.70;;
18720;SDS011;9489;50.948;3.114;2022-09-09T04:24:06;11.32;;;3.65;;
18720;SDS011;9489;50.948;3.114;2022-09-09T04:26:32;12.02;;;4.05;;
18720;SDS011;9489;50.948;3.114;2022-09-09T04:28:59;8.82;;;3.83;;
18720;SDS011;9489;50.948;3.114;2022-09-09T04:31:24;11.82;;;3.40;;
18720;SDS011;9489;50.948;3.114;2022-09-09T04:33:50;10.50;;;3.92;;
18720;SDS011;9489;50.948;3.114;2022-09-09T04:36:16;11.05;;;3.63;;
18720;SDS011;9489;50.948;3.114;2022-09-09T04:38:44;11.98;;;3.50;;
18720;SDS011;9489;50.948;3.114;2022-09-09T04:41:10;9.10;;;3.88;;
18720;SDS011;9489;50.948;3.114;2022-09-09T04:43:36;11.13;;;3.90;;
18720;SDS011;9489;50.948;3.114;2022-09-09T04:46:05;13.70;;;3.72;;
18720;SDS011;9489;50.948;3.114;2022-09-09T04:48:31;10.30;;;4.07;;
18720;SDS011;9489;50.948;3.114;2022-09-09T04:50:58;7.50;;;3.47;;
18720;SDS011;9489;50.948;3.114;2022-09-09T04:53:26;10.25;;;4.18;;
18720;SDS011;9489;50.948;3.114;2022-09-09T04:55:52;9.90;;;3.53;;
18720;SDS011;9489;50.948;3.114;2022-09-09T04:58:26;10.90;;;3.83;;
18720;SDS011;9489;50.948;3.114;2022-09-09T05:00:51;14.90;;;4.05;;
18720;SDS011;9489;50.948;3.114;2022-09-09T05:03:17;10.15;;;3.72;;
18720;SDS011;9489;50.948;3.114;2022-09-09T05:05:44;11.07;;;4.18;;
18720;SDS011;9489;50.948;3.114;2022-09-09T05:08:09;13.25;;;3.85;;
18720;SDS011;9489;50.948;3.114;2022-09-09T05:10:36;12.45;;;4.63;;
18720;SDS011;9489;50.948;3.114;2022-09-09T05:13:03;11.27;;;3.58;;
18720;SDS011;9489;50.948;3.114;2022-09-09T05:15:30;12.25;;;4.35;;
18720;SDS011;9489;50.948;3.114;2022-09-09T05:17:56;13.75;;;5.05;;
18720;SDS011;9489;50.948;3.114;2022-09-09T05:20:24;14.00;;;4.43;;
18720;SDS011;9489;50.948;3.114;2022-09-09T05:22:52;11.60;;;4.03;;
18720;SDS011;9489;50.948;3.114;2022-09-09T05:25:18;12.27;;;4.50;;
18720;SDS011;9489;50.948;3.114;2022-09-09T05:27:44;12.45;;;4.30;;
18720;SDS011;9489;50.948;3.114;2022-09-09T05:30:10;11.70;;;5.03;;
18720;SDS011;9489;50.948;3.114;2022-09-09T05:32:36;13.30;;;4.85;;
18720;SDS011;9489;50.948;3.114;2022-09-09T05:35:01;15.45;;;4.88;;
18720;SDS011;9489;50.948;3.114;2022-09-09T05:37:30;12.95;;;4.90;;
18720;SDS011;9489;50.948;3.114;2022-09-09T05:39:56;10.52;;;4.60;;
18720;SDS011;9489;50.948;3.114;2022-09-09T05:42:22;9.88;;;3.90;;
18720;SDS011;9489;50.948;3.114;2022-09-09T05:44:48;14.50;;;4.50;;
18720;SDS011;9489;50.948;3.114;2022-09-09T05:47:15;11.20;;;4.32;;
18720;SDS011;9489;50.948;3.114;2022-09-09T05:49:42;10.80;;;3.90;;
18720;SDS011;9489;50.948;3.114;2022-09-09T05:52:07;9.88;;;4.63;;
18720;SDS011;9489;50.948;3.114;2022-09-09T05:54:34;11.20;;;4.40;;
18720;SDS011;9489;50.948;3.114;2022-09-09T05:57:00;14.88;;;4.90;;
18720;SDS011;9489;50.948;3.114;2022-09-09T05:59:25;13.93;;;4.57;;
18720;SDS011;9489;50.948;3.114;2022-09-09T06:01:51;10.40;;;4.15;;
18720;SDS011;9489;50.948;3.114;2022-09-09T06:04:17;13.32;;;4.80;;
18720;SDS011;9489;50.948;3.114;2022-09-09T06:06:42;11.80;;;4.35;;
18720;SDS011;9489;50.948;3.114;2022-09-09T06:09:09;13.30;;;3.97;;
18720;SDS011;9489;50.948;3.114;2022-09-09T06:11:36;10.15;;;4.40;;
18720;SDS011;9489;50.948;3.114;2022-09-09T06:14:03;11.18;;;3.83;;
18720;SDS011;9489;50.948;3.114;2022-09-09T06:16:29;9.48;;;3.90;;
18720;SDS011;9489;50.948;3.114;2022-09-09T06:18:57;10.98;;;4.15;;
18720;SDS011;9489;50.948;3.114;2022-09-09T06:21:24;7.82;;;3.80;;
18720;SDS011;9489;50.948;3.114;2022-09-09T06:23:51;8.00;;;3.55;;
18720;SDS011;9489;50.948;3.114;2022-09-09T06:26:19;12.13;;;4.63;;
18720;SDS011;9489;50.948;3.114;2022-09-09T06:28:47;9.32;;;4.00;;
18720;SDS011;9489;50.948;3.114;2022-09-09T06:31:15;13.02;;;4.30;;
18720;SDS011;9489;50.948;3.114;2022-09-09T06:33:42;10.25;;;3.83;;
18720;SDS011;9489;50.948;3.114;2022-09-09T06:36:28;12.75;;;4.20;;
18720;SDS011;9489;50.948;3.114;2022-09-09T06:38:58;12.45;;;4.63;;
18720;SDS011;9489;50.948;3.114;2022-09-09T06:41:25;6.22;;;4.13;;
18720;SDS011;9489;50.948;3.114;2022-09-09T06:43:52;10.30;;;4.35;;
18720;SDS011;9489;50.948;3.114;2022-09-09T06:46:22;11.07;;;4.75;;
18720;SDS011;9489;50.948;3.114;2022-09-09T06:48:52;12.60;;;4.80;;
18720;SDS011;9489;50.948;3.114;2022-09-09T06:51:20;9.23;;;4.03;;
18720;SDS011;9489;50.948;3.114;2022-09-09T06:53:49;12.45;;;5.90;;
18720;SDS011;9489;50.948;3.114;2022-09-09T06:58:41;12.77;;;5.22;;
18720;SDS011;9489;50.948;3.114;2022-09-09T07:01:09;11.90;;;4.47;;
18720;SDS011;9489;50.948;3.114;2022-09-09T07:03:37;11.38;;;4.13;;
18720;SDS011;9489;50.948;3.114;2022-09-09T07:06:03;10.00;;;4.55;;
18720;SDS011;9489;50.948;3.114;2022-09-09T07:08:29;13.65;;;4.25;;
18720;SDS011;9489;50.948;3.114;2022-09-09T07:11:01;10.80;;;4.60;;
18720;SDS011;9489;50.948;3.114;2022-09-09T07:13:32;14.55;;;5.05;;
18720;SDS011;9489;50.948;3.114;2022-09-09T07:16:07;12.70;;;4.90;;
18720;SDS011;9489;50.948;3.114;2022-09-09T07:18:34;10.75;;;4.43;;
18720;SDS011;9489;50.948;3.114;2022-09-09T07:21:00;7.85;;;4.28;;
18720;SDS011;9489;50.948;3.114;2022-09-09T07:23:27;11.57;;;4.35;;
18720;SDS011;9489;50.948;3.114;2022-09-09T07:25:54;11.50;;;4.82;;
18720;SDS011;9489;50.948;3.114;2022-09-09T07:28:19;9.18;;;4.22;;
18720;SDS011;9489;50.948;3.114;2022-09-09T07:30:55;6.93;;;3.80;;
18720;SDS011;9489;50.948;3.114;2022-09-09T07:33:23;11.02;;;4.47;;
18720;SDS011;9489;50.948;3.114;2022-09-09T07:35:49;9.90;;;4.35;;
18720;SDS011;9489;50.948;3.114;2022-09-09T07:38:15;10.27;;;4.30;;
18720;SDS011;9489;50.948;3.114;2022-09-09T07:40:40;6.10;;;3.65;;
18720;SDS011;9489;50.948;3.114;2022-09-09T07:43:06;11.20;;;4.25;;
18720;SDS011;9489;50.948;3.114;2022-09-09T07:45:33;7.75;;;4.07;;
18720;SDS011;9489;50.948;3.114;2022-09-09T07:47:59;9.35;;;4.53;;
18720;SDS011;9489;50.948;3.114;2022-09-09T07:50:25;11.57;;;4.18;;
18720;SDS011;9489;50.948;3.114;2022-09-09T07:52:51;11.95;;;4.43;;
18720;SDS011;9489;50.948;3.114;2022-09-09T07:55:17;6.35;;;2.90;;
18720;SDS011;9489;50.948;3.114;2022-09-09T07:57:42;6.05;;;3.17;;
18720;SDS011;9489;50.948;3.114;2022-09-09T08:00:08;8.98;;;3.50;;
18720;SDS011;9489;50.948;3.114;2022-09-09T08:02:35;10.45;;;3.08;;
18720;SDS011;9489;50.948;3.114;2022-09-09T08:05:01;8.52;;;3.53;;
18720;SDS011;9489;50.948;3.114;2022-09-09T08:07:27;5.90;;;3.17;;
18720;SDS011;9489;50.948;3.114;2022-09-09T08:09:53;5.95;;;3.10;;
18720;SDS011;9489;50.948;3.114;2022-09-09T08:12:20;8.38;;;3.72;;
18720;SDS011;9489;50.948;3.114;2022-09-09T08:14:46;6.20;;;3.42;;
18720;SDS011;9489;50.948;3.114;2022-09-09T08:17:12;8.80;;;3.42;;
18720;SDS011;9489;50.948;3.114;2022-09-09T08:19:37;8.73;;;4.15;;
18720;SDS011;9489;50.948;3.114;2022-09-09T08:22:03;9.25;;;3.80;;
18720;SDS011;9489;50.948;3.114;2022-09-09T08:24:28;5.22;;;3.78;;
18720;SDS011;9489;50.948;3.114;2022-09-09T08:26:54;6.28;;;3.05;;
18720;SDS011;9489;50.948;3.114;2022-09-09T08:29:21;6.47;;;3.08;;
18720;SDS011;9489;50.948;3.114;2022-09-09T08:31:48;7.13;;;3.33;;
18720;SDS011;9489;50.948;3.114;2022-09-09T08:34:19;3.90;;;2.70;;
18720;SDS011;9489;50.948;3.114;2022-09-09T08:36:45;4.72;;;2.58;;
18720;SDS011;9489;50.948;3.114;2022-09-09T08:39:13;5.60;;;2.60;;
18720;SDS011;9489;50.948;3.114;2022-09-09T08:47:02;3.40;;;2.08;;
18720;SDS011;9489;50.948;3.114;2022-09-09T08:55:25;4.32;;;2.03;;
18720;SDS011;9489;50.948;3.114;2022-09-09T08:57:58;2.90;;;2.05;;
18720;SDS011;9489;50.948;3.114;2022-09-09T09:00:41;3.53;;;1.77;;
18720;SDS011;9489;50.948;3.114;2022-09-09T09:03:19;3.38;;;2.03;;
18720;SDS011;9489;50.948;3.114;2022-09-09T09:05:55;5.25;;;2.20;;
18720;SDS011;9489;50.948;3.114;2022-09-09T09:11:03;2.97;;;1.85;;
18720;SDS011;9489;50.948;3.114;2022-09-09T09:16:09;2.33;;;1.50;;
18720;SDS011;9489;50.948;3.114;2022-09-09T09:18:47;4.05;;;1.80;;
18720;SDS011;9489;50.948;3.114;2022-09-09T09:21:16;5.22;;;1.92;;
18720;SDS011;9489;50.948;3.114;2022-09-09T09:23:51;3.90;;;1.92;;
18720;SDS011;9489;50.948;3.114;2022-09-09T09:26:21;3.28;;;2.17;;
18720;SDS011;9489;50.948;3.114;2022-09-09T09:28:51;4.38;;;2.13;;
18720;SDS011;9489;50.948;3.114;2022-09-09T09:31:21;3.30;;;1.95;;
18720;SDS011;9489;50.948;3.114;2022-09-09T09:33:51;3.28;;;1.90;;
18720;SDS011;9489;50.948;3.114;2022-09-09T09:36:18;2.92;;;1.80;;
18720;SDS011;9489;50.948;3.114;2022-09-09T09:38:51;5.57;;;2.10;;
18720;SDS011;9489;50.948;3.114;2022-09-09T09:41:30;2.72;;;1.63;;
18720;SDS011;9489;50.948;3.114;2022-09-09T09:43:58;2.33;;;1.67;;
18720;SDS011;9489;50.948;3.114;2022-09-09T09:46:24;4.75;;;1.92;;
18720;SDS011;9489;50.948;3.114;2022-09-09T09:49:00;3.55;;;1.90;;
18720;SDS011;9489;50.948;3.114;2022-09-09T09:51:28;2.63;;;1.73;;
18720;SDS011;9489;50.948;3.114;2022-09-09T09:54:08;1.92;;;1.30;;
18720;SDS011;9489;50.948;3.114;2022-09-09T09:56:34;3.13;;;1.40;;
18720;SDS011;9489;50.948;3.114;2022-09-09T09:59:00;2.17;;;1.73;;
18720;SDS011;9489;50.948;3.114;2022-09-09T10:06:40;3.50;;;1.70;;
18720;SDS011;9489;50.948;3.114;2022-09-09T10:09:25;2.55;;;1.45;;
18720;SDS011;9489;50.948;3.114;2022-09-09T10:19:52;2.33;;;1.30;;
18720;SDS011;9489;50.948;3.114;2022-09-09T10:22:46;2.53;;;1.60;;
18720;SDS011;9489;50.948;3.114;2022-09-09T10:33:56;3.20;;;1.27;;
18720;SDS011;9489;50.948;3.114;2022-09-09T10:36:24;3.03;;;1.70;;
18720;SDS011;9489;50.948;3.114;2022-09-09T10:39:04;5.88;;;2.05;;
18720;SDS011;9489;50.948;3.114;2022-09-09T10:42:03;3.22;;;1.73;;
18720;SDS011;9489;50.948;3.114;2022-09-09T10:50:18;2.55;;;1.80;;
18720;SDS011;9489;50.948;3.114;2022-09-09T10:53:12;2.95;;;1.50;;
18720;SDS011;9489;50.948;3.114;2022-09-09T10:56:06;5.15;;;2.03;;
18720;SDS011;9489;50.948;3.114;2022-09-09T11:01:11;4.65;;;1.50;;
18720;SDS011;9489;50.948;3.114;2022-09-09T11:03:47;5.38;;;1.88;;
18720;SDS011;9489;50.948;3.114;2022-09-09T11:06:22;3.45;;;1.38;;
18720;SDS011;9489;50.948;3.114;2022-09-09T11:09:02;2.53;;;1.33;;
18720;SDS011;9489;50.948;3.114;2022-09-09T11:11:35;2.67;;;1.30;;
18720;SDS011;9489;50.948;3.114;2022-09-09T11:17:03;3.28;;;1.65;;
18720;SDS011;9489;50.948;3.114;2022-09-09T11:19:35;4.15;;;1.88;;
18720;SDS011;9489;50.948;3.114;2022-09-09T11:22:27;4.28;;;1.58;;
18720;SDS011;9489;50.948;3.114;2022-09-09T11:27:47;1.77;;;1.23;;
18720;SDS011;9489;50.948;3.114;2022-09-09T11:44:47;5.00;;;2.10;;
18720;SDS011;9489;50.948;3.114;2022-09-09T11:47:26;3.75;;;1.88;;
18720;SDS011;9489;50.948;3.114;2022-09-09T11:52:41;4.15;;;1.67;;
18720;SDS011;9489;50.948;3.114;2022-09-09T11:57:48;4.57;;;2.13;;
18720;SDS011;9489;50.948;3.114;2022-09-09T12:00:33;4.70;;;2.45;;
18720;SDS011;9489;50.948;3.114;2022-09-09T12:03:05;3.65;;;2.58;;
18720;SDS011;9489;50.948;3.114;2022-09-09T12:05:51;6.35;;;3.00;;
18720;SDS011;9489;50.948;3.114;2022-09-09T12:08:19;5.43;;;3.00;;
18720;SDS011;9489;50.948;3.114;2022-09-09T12:10:57;6.00;;;2.63;;
18720;SDS011;9489;50.948;3.114;2022-09-09T12:13:28;3.83;;;2.45;;
18720;SDS011;9489;50.948;3.114;2022-09-09T12:15:57;5.85;;;2.88;;
18720;SDS011;9489;50.948;3.114;2022-09-09T12:18:25;5.97;;;2.58;;
18720;SDS011;9489;50.948;3.114;2022-09-09T12:21:00;6.97;;;3.13;;
18720;SDS011;9489;50.948;3.114;2022-09-09T12:29:27;4.65;;;2.90;;
18720;SDS011;9489;50.948;3.114;2022-09-09T12:40:04;6.20;;;2.97;;
18720;SDS011;9489;50.948;3.114;2022-09-09T12:42:32;3.70;;;2.78;;
18720;SDS011;9489;50.948;3.114;2022-09-09T12:45:01;5.43;;;3.05;;
18720;SDS011;9489;50.948;3.114;2022-09-09T12:50:19;3.80;;;2.70;;
18720;SDS011;9489;50.948;3.114;2022-09-09T12:52:47;3.58;;;2.78;;
18720;SDS011;9489;50.948;3.114;2022-09-09T12:55:18;6.38;;;2.55;;
18720;SDS011;9489;50.948;3.114;2022-09-09T12:57:46;5.20;;;2.22;;
18720;SDS011;9489;50.948;3.114;2022-09-09T13:02:48;3.58;;;2.63;;
18720;SDS011;9489;50.948;3.114;2022-09-09T13:05:16;3.60;;;2.30;;
18720;SDS011;9489;50.948;3.114;2022-09-09T13:08:00;4.28;;;2.50;;
18720;SDS011;9489;50.948;3.114;2022-09-09T13:10:34;4.65;;;2.13;;
18720;SDS011;9489;50.948;3.114;2022-09-09T13:13:04;3.85;;;2.22;;
18720;SDS011;9489;50.948;3.114;2022-09-09T13:15:38;5.10;;;2.25;;
18720;SDS011;9489;50.948;3.114;2022-09-09T13:18:05;3.90;;;2.38;;
18720;SDS011;9489;50.948;3.114;2022-09-09T13:20:37;3.95;;;2.53;;
18720;SDS011;9489;50.948;3.114;2022-09-09T13:23:03;6.80;;;2.70;;
18720;SDS011;9489;50.948;3.114;2022-09-09T13:25:28;5.95;;;2.50;;
18720;SDS011;9489;50.948;3.114;2022-09-09T13:33:01;6.07;;;3.00;;
18720;SDS011;9489;50.948;3.114;2022-09-09T13:35:27;4.38;;;2.63;;
18720;SDS011;9489;50.948;3.114;2022-09-09T13:37:53;3.22;;;2.55;;
18720;SDS011;9489;50.948;3.114;2022-09-09T13:40:21;5.97;;;2.95;;
18720;SDS011;9489;50.948;3.114;2022-09-09T13:42:51;4.00;;;2.35;;
18720;SDS011;9489;50.948;3.114;2022-09-09T13:45:21;4.07;;;2.80;;
18720;SDS011;9489;50.948;3.114;2022-09-09T13:47:51;3.47;;;2.40;;
18720;SDS011;9489;50.948;3.114;2022-09-09T13:52:46;4.78;;;2.03;;
18720;SDS011;9489;50.948;3.114;2022-09-09T13:55:32;4.03;;;1.95;;
18720;SDS011;9489;50.948;3.114;2022-09-09T13:58:01;4.82;;;2.53;;
18720;SDS011;9489;50.948;3.114;2022-09-09T14:00:30;3.05;;;1.65;;
18720;SDS011;9489;50.948;3.114;2022-09-09T14:02:57;3.85;;;1.98;;
18720;SDS011;9489;50.948;3.114;2022-09-09T14:05:23;3.20;;;1.42;;
18720;SDS011;9489;50.948;3.114;2022-09-09T14:07:49;2.92;;;1.60;;
18720;SDS011;9489;50.948;3.114;2022-09-09T14:10:15;2.33;;;1.27;;
18720;SDS011;9489;50.948;3.114;2022-09-09T14:12:40;2.53;;;1.40;;
18720;SDS011;9489;50.948;3.114;2022-09-09T14:15:07;2.55;;;1.30;;
18720;SDS011;9489;50.948;3.114;2022-09-09T14:17:34;3.42;;;2.35;;
18720;SDS011;9489;50.948;3.114;2022-09-09T14:20:01;2.95;;;1.20;;
18720;SDS011;9489;50.948;3.114;2022-09-09T14:22:28;5.85;;;4.38;;
18720;SDS011;9489;50.948;3.114;2022-09-09T14:24:54;2.10;;;1.48;;
18720;SDS011;9489;50.948;3.114;2022-09-09T14:27:19;2.45;;;1.35;;
18720;SDS011;9489;50.948;3.114;2022-09-09T14:29:45;2.10;;;1.35;;
18720;SDS011;9489;50.948;3.114;2022-09-09T14:32:11;3.90;;;1.38;;
18720;SDS011;9489;50.948;3.114;2022-09-09T14:34:37;2.47;;;1.48;;
18720;SDS011;9489;50.948;3.114;2022-09-09T14:37:03;2.10;;;1.50;;
18720;SDS011;9489;50.948;3.114;2022-09-09T14:39:29;3.70;;;1.98;;
18720;SDS011;9489;50.948;3.114;2022-09-09T14:41:54;1.95;;;1.70;;
18720;SDS011;9489;50.948;3.114;2022-09-09T14:44:20;2.75;;;1.40;;
18720;SDS011;9489;50.948;3.114;2022-09-09T14:46:46;2.45;;;1.55;;
18720;SDS011;9489;50.948;3.114;2022-09-09T14:49:12;3.40;;;1.90;;
18720;SDS011;9489;50.948;3.114;2022-09-09T14:51:38;3.25;;;2.00;;
18720;SDS011;9489;50.948;3.114;2022-09-09T14:54:04;3.30;;;1.98;;
18720;SDS011;9489;50.948;3.114;2022-09-09T14:56:31;2.65;;;1.73;;
18720;SDS011;9489;50.948;3.114;2022-09-09T14:58:59;1.83;;;1.60;;
18720;SDS011;9489;50.948;3.114;2022-09-09T15:01:26;3.22;;;1.73;;
18720;SDS011;9489;50.948;3.114;2022-09-09T15:03:55;3.92;;;2.50;;
18720;SDS011;9489;50.948;3.114;2022-09-09T15:06:23;3.40;;;2.67;;
18720;SDS011;9489;50.948;3.114;2022-09-09T15:08:51;5.10;;;2.50;;
18720;SDS011;9489;50.948;3.114;2022-09-09T15:11:17;3.88;;;2.47;;
18720;SDS011;9489;50.948;3.114;2022-09-09T15:13:45;4.38;;;3.20;;
18720;SDS011;9489;50.948;3.114;2022-09-09T15:16:15;3.65;;;3.22;;
18720;SDS011;9489;50.948;3.114;2022-09-09T15:18:42;3.78;;;3.30;;
18720;SDS011;9489;50.948;3.114;2022-09-09T15:21:13;4.25;;;3.85;;
18720;SDS011;9489;50.948;3.114;2022-09-09T15:23:41;4.85;;;3.30;;
18720;SDS011;9489;50.948;3.114;2022-09-09T15:26:07;4.00;;;3.10;;
18720;SDS011;9489;50.948;3.114;2022-09-09T15:28:35;7.30;;;3.55;;
18720;SDS011;9489;50.948;3.114;2022-09-09T15:31:06;10.73;;;3.58;;
18720;SDS011;9489;50.948;3.114;2022-09-09T15:33:34;4.68;;;3.53;;
18720;SDS011;9489;50.948;3.114;2022-09-09T15:38:48;5.28;;;3.35;;
18720;SDS011;9489;50.948;3.114;2022-09-09T15:41:14;6.50;;;3.00;;
18720;SDS011;9489;50.948;3.114;2022-09-09T15:43:45;3.85;;;3.13;;
18720;SDS011;9489;50.948;3.114;2022-09-09T15:46:21;5.07;;;2.72;;
18720;SDS011;9489;50.948;3.114;2022-09-09T15:48:54;2.88;;;2.20;;
18720;SDS011;9489;50.948;3.114;2022-09-09T15:51:28;6.70;;;3.05;;
18720;SDS011;9489;50.948;3.114;2022-09-09T15:53:55;3.53;;;2.15;;
18720;SDS011;9489;50.948;3.114;2022-09-09T15:56:23;4.70;;;2.47;;
18720;SDS011;9489;50.948;3.114;2022-09-09T15:58:50;4.32;;;2.33;;
18720;SDS011;9489;50.948;3.114;2022-09-09T16:01:16;4.10;;;2.40;;
18720;SDS011;9489;50.948;3.114;2022-09-09T16:03:43;4.80;;;2.47;;
18720;SDS011;9489;50.948;3.114;2022-09-09T16:06:14;5.35;;;2.38;;
18720;SDS011;9489;50.948;3.114;2022-09-09T16:08:42;4.07;;;2.10;;
18720;SDS011;9489;50.948;3.114;2022-09-09T16:13:39;5.22;;;2.13;;
18720;SDS011;9489;50.948;3.114;2022-09-09T16:16:05;5.18;;;1.70;;
18720;SDS011;9489;50.948;3.114;2022-09-09T16:18:36;2.00;;;1.80;;
18720;SDS011;9489;50.948;3.114;2022-09-09T16:21:08;4.07;;;1.83;;
18720;SDS011;9489;50.948;3.114;2022-09-09T16:23:42;5.90;;;2.22;;
18720;SDS011;9489;50.948;3.114;2022-09-09T16:26:10;5.30;;;1.92;;
18720;SDS011;9489;50.948;3.114;2022-09-09T16:28:36;3.40;;;1.83;;
18720;SDS011;9489;50.948;3.114;2022-09-09T16:31:09;6.47;;;2.20;;
18720;SDS011;9489;50.948;3.114;2022-09-09T16:33:38;4.60;;;2.00;;
18720;SDS011;9489;50.948;3.114;2022-09-09T16:36:05;4.80;;;1.90;;
18720;SDS011;9489;50.948;3.114;2022-09-09T16:38:32;3.45;;;1.65;;
18720;SDS011;9489;50.948;3.114;2022-09-09T16:40:59;5.88;;;1.83;;
18720;SDS011;9489;50.948;3.114;2022-09-09T16:43:25;5.28;;;1.58;;
18720;SDS011;9489;50.948;3.114;2022-09-09T16:45:50;5.07;;;2.00;;
18720;SDS011;9489;50.948;3.114;2022-09-09T16:48:16;4.25;;;1.83;;
18720;SDS011;9489;50.948;3.114;2022-09-09T16:50:42;4.68;;;1.60;;
18720;SDS011;9489;50.948;3.114;2022-09-09T16:53:07;5.85;;;1.73;;
18720;SDS011;9489;50.948;3.114;2022-09-09T16:55:37;5.10;;;2.00;;
18720;SDS011;9489;50.948;3.114;2022-09-09T16:58:07;6.53;;;1.98;;
18720;SDS011;9489;50.948;3.114;2022-09-09T17:00:34;4.32;;;1.90;;
18720;SDS011;9489;50.948;3.114;2022-09-09T17:03:00;6.63;;;1.98;;
18720;SDS011;9489;50.948;3.114;2022-09-09T17:05:25;4.35;;;1.65;;
18720;SDS011;9489;50.948;3.114;2022-09-09T17:07:51;5.63;;;1.70;;
18720;SDS011;9489;50.948;3.114;2022-09-09T17:10:16;5.63;;;1.95;;
18720;SDS011;9489;50.948;3.114;2022-09-09T17:12:42;6.78;;;1.85;;
18720;SDS011;9489;50.948;3.114;2022-09-09T17:15:08;5.38;;;2.05;;
18720;SDS011;9489;50.948;3.114;2022-09-09T17:17:35;5.97;;;2.20;;
18720;SDS011;9489;50.948;3.114;2022-09-09T17:20:00;6.78;;;1.98;;
18720;SDS011;9489;50.948;3.114;2022-09-09T17:22:27;6.47;;;2.25;;
18720;SDS011;9489;50.948;3.114;2022-09-09T17:24:53;5.95;;;2.40;;
18720;SDS011;9489;50.948;3.114;2022-09-09T17:27:20;7.38;;;2.47;;
18720;SDS011;9489;50.948;3.114;2022-09-09T17:29:45;4.55;;;2.22;;
18720;SDS011;9489;50.948;3.114;2022-09-09T17:32:11;5.43;;;2.00;;
18720;SDS011;9489;50.948;3.114;2022-09-09T17:34:37;5.03;;;1.88;;
18720;SDS011;9489;50.948;3.114;2022-09-09T17:37:03;4.88;;;1.70;;
18720;SDS011;9489;50.948;3.114;2022-09-09T17:39:30;4.30;;;1.80;;
18720;SDS011;9489;50.948;3.114;2022-09-09T17:41:56;4.93;;;1.80;;
18720;SDS011;9489;50.948;3.114;2022-09-09T17:44:22;4.97;;;1.90;;